Time;durP1;ratioP1;P1;durP2;ratioP2;P2;SDS_P1;SDS_P2;PMS_P1;PMS_P2;Temp;Humidity;BMP_temperature;BMP_pressure;BME280_temperature;BME280_humidity;BME280_pressure;Samples;Min_cycle;Max_cycle;Signal;HPM_P1;HPM_P2
2022/03/11 00:01:14;;;;;;;5.47;4.90;;;4.80;81.20;;;;;;5086907;28;20677;-80
2022/03/11 00:03:42;;;;;;;6.17;5.33;;;4.90;81.50;;;;;;5078941;28;20234;-80
2022/03/11 00:06:08;;;;;;;5.87;5.07;;;4.70;81.30;;;;;;5067747;28;20257;-80
2022/03/11 00:08:35;;;;;;;5.97;5.40;;;4.70;81.40;;;;;;5085825;28;20211;-80
2022/03/11 00:11:05;;;;;;;7.33;5.27;;;4.70;81.50;;;;;;5086858;28;20674;-78
2022/03/11 00:13:31;;;;;;;5.47;4.80;;;4.70;81.40;;;;;;5087477;28;20202;-78
2022/03/11 00:15:58;;;;;;;8.00;4.90;;;4.60;81.50;;;;;;5087102;28;20239;-81
2022/03/11 00:18:25;;;;;;;7.33;5.33;;;4.60;81.40;;;;;;5087564;28;20234;-81
2022/03/11 00:20:53;;;;;;;5.97;4.63;;;4.60;81.60;;;;;;5075845;28;20207;-77
2022/03/11 00:23:20;;;;;;;6.53;5.23;;;4.60;81.50;;;;;;5066598;28;20235;-85
2022/03/11 00:25:47;;;;;;;7.07;4.90;;;4.50;81.50;;;;;;5067263;28;20207;-85
2022/03/11 00:28:13;;;;;;;5.70;4.87;;;4.40;81.50;;;;;;5067417;28;20214;-84
2022/03/11 00:30:40;;;;;;;6.50;4.73;;;4.50;81.60;;;;;;5066787;28;20586;-85
2022/03/11 00:33:07;;;;;;;5.03;4.43;;;4.50;81.80;;;;;;5066967;28;20211;-85
2022/03/11 00:35:34;;;;;;;8.83;5.30;;;4.50;81.70;;;;;;5066684;28;20271;-85
2022/03/11 00:38:02;;;;;;;6.43;4.57;;;4.40;81.60;;;;;;5066729;28;20384;-84
2022/03/11 00:40:28;;;;;;;6.40;5.30;;;4.40;82.10;;;;;;5084510;28;20260;-84
2022/03/11 00:42:55;;;;;;;7.33;4.90;;;4.40;82.10;;;;;;5086817;28;20215;-84
2022/03/11 00:45:23;;;;;;;7.90;5.40;;;4.30;82.00;;;;;;5086372;28;20726;-84
2022/03/11 00:47:49;;;;;;;5.97;5.37;;;4.30;81.70;;;;;;5087070;28;20650;-85
2022/03/11 00:50:16;;;;;;;6.43;4.90;;;4.30;81.70;;;;;;5087090;28;20617;-86
2022/03/11 00:52:43;;;;;;;5.60;5.10;;;4.30;81.80;;;;;;5087389;28;20203;-85
2022/03/11 00:55:12;;;;;;;7.77;4.63;;;4.30;81.80;;;;;;5087163;28;20234;-86
2022/03/11 00:57:38;;;;;;;5.90;4.60;;;4.30;81.90;;;;;;5087185;28;20222;-86
2022/03/11 01:00:06;;;;;;;5.93;4.70;;;4.30;81.90;;;;;;5076972;28;20610;-85
2022/03/11 01:02:36;;;;;;;9.00;5.30;;;4.30;81.90;;;;;;5066677;28;20211;-80
2022/03/11 01:05:05;;;;;;;5.97;4.70;;;4.20;81.70;;;;;;5066363;28;20210;-82
2022/03/11 01:07:32;;;;;;;5.77;5.10;;;4.20;81.60;;;;;;5080873;28;20264;-80
2022/03/11 01:09:59;;;;;;;5.73;5.13;;;4.20;81.80;;;;;;5086366;28;20206;-81
2022/03/11 01:12:27;;;;;;;6.80;4.97;;;4.20;81.50;;;;;;5086144;28;20215;-81
2022/03/11 01:14:54;;;;;;;6.87;5.03;;;4.20;81.70;;;;;;5085392;28;20230;-81
2022/03/11 01:17:21;;;;;;;5.00;4.50;;;4.20;81.70;;;;;;5085919;28;20798;-80
2022/03/11 01:19:47;;;;;;;6.60;5.50;;;4.20;81.80;;;;;;5083730;28;20272;-81
2022/03/11 01:22:15;;;;;;;5.40;4.67;;;4.20;81.40;;;;;;5065333;28;20239;-80
2022/03/11 01:24:41;;;;;;;7.10;5.47;;;4.10;81.30;;;;;;5065465;28;21003;-80
2022/03/11 01:27:08;;;;;;;5.57;4.87;;;4.00;81.50;;;;;;5066045;28;20211;-80
2022/03/11 01:29:36;;;;;;;5.33;4.83;;;4.00;81.30;;;;;;5065376;28;20211;-80
2022/03/11 01:32:03;;;;;;;5.60;4.90;;;4.00;81.50;;;;;;5065931;28;20219;-80
2022/03/11 01:34:30;;;;;;;7.83;5.17;;;4.00;81.50;;;;;;5066065;28;20747;-85
2022/03/11 01:36:56;;;;;;;6.77;5.10;;;4.00;82.00;;;;;;5066480;28;20556;-80
2022/03/11 01:39:23;;;;;;;7.77;5.17;;;4.00;81.60;;;;;;5073903;28;20215;-79
2022/03/11 01:41:50;;;;;;;6.97;5.30;;;3.90;81.50;;;;;;5085642;28;20252;-79
2022/03/11 01:44:16;;;;;;;5.83;5.20;;;3.90;82.10;;;;;;5085440;28;20203;-79
2022/03/11 01:46:44;;;;;;;6.57;5.13;;;3.90;81.80;;;;;;5085266;28;20215;-78
2022/03/11 01:49:11;;;;;;;6.83;5.10;;;3.90;81.80;;;;;;5067268;28;20207;-79
2022/03/11 01:51:40;;;;;;;6.07;5.03;;;3.80;81.90;;;;;;5065184;28;20210;-79
2022/03/11 01:54:06;;;;;;;7.73;5.10;;;3.80;82.00;;;;;;5083933;28;20207;-79
2022/03/11 01:56:34;;;;;;;5.80;4.70;;;3.80;82.10;;;;;;5073380;28;20778;-79
2022/03/11 01:59:00;;;;;;;7.43;5.10;;;3.80;82.10;;;;;;5065613;28;20261;-79
2022/03/11 02:01:27;;;;;;;11.93;5.40;;;3.80;81.90;;;;;;5085251;28;20207;-81
2022/03/11 02:03:57;;;;;;;10.37;5.20;;;3.80;81.80;;;;;;5084625;28;20217;-81
2022/03/11 02:06:24;;;;;;;7.70;5.10;;;3.80;82.10;;;;;;5085050;28;20620;-81
2022/03/11 02:08:51;;;;;;;5.87;5.07;;;3.70;82.30;;;;;;5085214;28;20279;-81
2022/03/11 02:11:18;;;;;;;8.90;5.53;;;3.70;81.80;;;;;;5085456;28;20207;-82
2022/03/11 02:13:47;;;;;;;6.77;5.17;;;3.70;82.10;;;;;;5082835;28;20207;-82
2022/03/11 02:16:14;;;;;;;7.30;5.53;;;3.60;82.10;;;;;;5084541;28;20793;-83
2022/03/11 02:18:41;;;;;;;8.37;5.90;;;3.60;82.30;;;;;;5086055;28;20578;-82
2022/03/11 02:21:10;;;;;;;8.50;5.67;;;3.60;82.00;;;;;;5085848;28;20207;-82
2022/03/11 02:23:46;;;;;;;7.23;5.33;;;3.60;82.20;;;;;;5086188;28;20241;-83
2022/03/11 02:26:13;;;;;;;8.47;5.33;;;3.60;82.20;;;;;;5086120;28;20210;-83
2022/03/11 02:28:42;;;;;;;5.90;5.30;;;3.60;82.20;;;;;;5085623;28;20256;-80
2022/03/11 02:31:09;;;;;;;6.73;5.23;;;3.50;82.00;;;;;;5085480;28;20206;-81
2022/03/11 02:33:36;;;;;;;6.67;5.40;;;3.60;82.30;;;;;;5075671;28;20561;-81
2022/03/11 02:36:06;;;;;;;7.07;5.80;;;3.60;82.30;;;;;;5065422;28;20305;-81
2022/03/11 02:38:33;;;;;;;7.40;5.30;;;3.50;82.00;;;;;;5065663;28;20204;-82
2022/03/11 02:41:04;;;;;;;7.03;5.30;;;3.50;82.40;;;;;;5065646;28;20207;-81
2022/03/11 02:43:30;;;;;;;7.00;5.73;;;3.50;82.70;;;;;;5067674;28;20217;-82
2022/03/11 02:45:57;;;;;;;8.47;5.57;;;3.40;82.60;;;;;;5085175;28;20203;-81
2022/03/11 02:48:24;;;;;;;7.73;5.23;;;3.40;82.70;;;;;;5086063;28;20206;-82
2022/03/11 02:50:50;;;;;;;8.07;4.90;;;3.40;82.60;;;;;;5067819;28;20666;-82
2022/03/11 02:53:17;;;;;;;9.30;5.67;;;3.40;82.80;;;;;;5065205;28;20211;-81
2022/03/11 02:55:44;;;;;;;6.80;5.60;;;3.40;82.80;;;;;;5070816;28;20371;-82
2022/03/11 02:58:15;;;;;;;6.37;5.27;;;3.40;82.80;;;;;;5085830;28;20213;-82
2022/03/11 03:00:42;;;;;;;8.27;5.90;;;3.30;83.10;;;;;;5079592;28;20199;-82
2022/03/11 03:03:08;;;;;;;7.20;5.83;;;3.30;83.00;;;;;;5085868;28;20689;-83
2022/03/11 03:05:35;;;;;;;8.30;5.87;;;3.30;83.00;;;;;;5085737;28;20211;-82
2022/03/11 03:08:02;;;;;;;11.73;5.83;;;3.30;83.10;;;;;;5086171;28;20696;-82
2022/03/11 03:10:29;;;;;;;6.07;5.23;;;3.20;83.10;;;;;;5086129;28;20299;-82
2022/03/11 03:12:55;;;;;;;7.87;5.80;;;3.20;83.00;;;;;;5085850;28;20233;-82
2022/03/11 03:15:23;;;;;;;7.07;5.57;;;3.20;83.30;;;;;;5085622;28;20241;-82
2022/03/11 03:17:50;;;;;;;8.07;5.70;;;3.20;83.40;;;;;;5085091;28;20279;-79
2022/03/11 03:20:16;;;;;;;7.90;5.97;;;3.20;83.30;;;;;;5085141;28;21316;-79
2022/03/11 03:22:43;;;;;;;7.43;5.40;;;3.10;83.60;;;;;;5084709;28;20284;-79
2022/03/11 03:25:10;;;;;;;7.73;5.40;;;3.10;83.60;;;;;;5085281;28;20271;-79
2022/03/11 03:27:37;;;;;;;10.13;5.80;;;3.00;83.60;;;;;;5084912;28;20215;-79
2022/03/11 03:30:04;;;;;;;6.97;5.30;;;3.10;83.80;;;;;;5086641;28;20230;-79
2022/03/11 03:32:33;;;;;;;7.33;5.70;;;3.10;83.80;;;;;;5089226;28;20211;-79
2022/03/11 03:34:59;;;;;;;6.27;5.67;;;3.00;83.70;;;;;;5088484;28;20723;-79
2022/03/11 03:37:26;;;;;;;6.47;5.17;;;2.90;83.90;;;;;;5088826;28;20239;-79
2022/03/11 03:39:53;;;;;;;6.00;5.37;;;2.90;84.50;;;;;;5088266;28;20614;-79
2022/03/11 03:42:19;;;;;;;9.60;5.77;;;2.90;84.10;;;;;;5074094;28;20215;-81
2022/03/11 03:44:46;;;;;;;9.93;6.10;;;2.90;84.00;;;;;;5074590;28;20211;-79
2022/03/11 03:47:13;;;;;;;9.83;5.70;;;2.90;84.10;;;;;;5088544;28;20195;-78
2022/03/11 03:49:41;;;;;;;8.10;5.80;;;2.90;84.20;;;;;;5088080;28;20615;-78
2022/03/11 03:52:11;;;;;;;7.50;5.37;;;2.90;84.30;;;;;;5085588;28;20263;-79
2022/03/11 03:54:38;;;;;;;6.10;5.30;;;2.90;84.20;;;;;;5068957;28;20191;-84
2022/03/11 03:57:05;;;;;;;7.50;5.73;;;2.90;84.10;;;;;;5083431;28;20301;-81
2022/03/11 03:59:32;;;;;;;10.10;5.53;;;2.90;84.40;;;;;;5088401;28;20206;-83
2022/03/11 04:01:59;;;;;;;8.67;5.50;;;2.80;84.00;;;;;;5088791;28;20203;-77
2022/03/11 04:04:25;;;;;;;7.00;5.67;;;2.80;84.20;;;;;;5089073;28;20206;-85
2022/03/11 04:06:53;;;;;;;7.53;5.47;;;2.80;84.20;;;;;;5089082;28;20825;-85
2022/03/11 04:09:20;;;;;;;9.93;6.00;;;2.80;84.20;;;;;;5078377;28;20212;-84
2022/03/11 04:11:47;;;;;;;6.73;6.00;;;2.80;84.30;;;;;;5080945;28;20578;-84
2022/03/11 04:14:14;;;;;;;6.83;5.53;;;2.70;84.60;;;;;;5087036;28;20211;-85
2022/03/11 04:16:40;;;;;;;9.37;6.03;;;2.70;84.60;;;;;;5086192;28;20234;-85
2022/03/11 04:19:07;;;;;;;7.30;5.90;;;2.70;84.60;;;;;;5066211;28;20204;-84
2022/03/11 04:21:34;;;;;;;10.70;6.20;;;2.70;84.60;;;;;;5066419;28;20235;-85
2022/03/11 04:24:04;;;;;;;9.13;6.07;;;2.60;85.00;;;;;;5067049;28;20203;-86
2022/03/11 04:26:31;;;;;;;7.37;6.43;;;2.70;86.30;;;;;;5067360;28;20215;-86
2022/03/11 04:28:57;;;;;;;8.57;6.13;;;2.70;86.70;;;;;;5066279;28;20294;-84
2022/03/11 04:31:25;;;;;;;6.17;5.53;;;2.70;85.80;;;;;;5066166;28;20207;-83
2022/03/11 04:33:52;;;;;;;7.60;6.13;;;2.70;84.90;;;;;;5065763;28;20795;-84
2022/03/11 04:36:18;;;;;;;6.73;5.90;;;2.60;85.00;;;;;;5070638;28;20361;-83
2022/03/11 04:38:45;;;;;;;8.17;5.70;;;2.60;85.20;;;;;;5086168;28;20211;-84
2022/03/11 04:41:13;;;;;;;7.00;6.03;;;2.60;85.10;;;;;;5086702;28;20210;-85
2022/03/11 04:43:39;;;;;;;8.07;5.37;;;2.60;85.00;;;;;;5086517;28;20233;-84
2022/03/11 04:46:06;;;;;;;7.33;5.87;;;2.60;85.00;;;;;;5084674;28;20223;-84
2022/03/11 04:48:33;;;;;;;10.90;6.50;;;2.50;85.00;;;;;;5078275;28;20701;-84
2022/03/11 04:50:59;;;;;;;7.67;6.00;;;2.50;84.90;;;;;;5065545;28;20211;-84
2022/03/11 04:53:26;;;;;;;9.00;6.00;;;2.50;85.00;;;;;;5065571;28;20238;-85
2022/03/11 04:55:52;;;;;;;10.70;6.13;;;2.40;85.10;;;;;;5064953;28;20235;-84
2022/03/11 04:58:20;;;;;;;8.30;6.33;;;2.40;85.30;;;;;;5065067;28;20211;-83
2022/03/11 05:00:47;;;;;;;8.27;5.77;;;2.40;85.30;;;;;;5080398;28;20257;-84
2022/03/11 05:03:14;;;;;;;7.87;5.83;;;2.30;85.00;;;;;;5072626;28;20210;-84
2022/03/11 05:05:41;;;;;;;8.73;6.20;;;2.40;85.10;;;;;;5070504;28;20207;-74
2022/03/11 05:08:07;;;;;;;9.87;6.07;;;2.30;85.40;;;;;;5082056;28;20273;-83
2022/03/11 05:10:34;;;;;;;8.13;5.90;;;2.30;85.30;;;;;;5079877;28;20203;-81
2022/03/11 05:13:01;;;;;;;8.67;6.10;;;2.30;85.20;;;;;;5077130;28;20677;-79
2022/03/11 05:15:29;;;;;;;8.20;6.23;;;2.30;85.30;;;;;;5079396;28;20242;-79
2022/03/11 05:17:56;;;;;;;8.80;5.87;;;2.30;85.10;;;;;;5067660;28;20276;-79
2022/03/11 05:20:22;;;;;;;9.77;5.97;;;2.30;85.10;;;;;;5074479;28;21008;-79
2022/03/11 05:22:50;;;;;;;8.23;5.87;;;2.20;85.40;;;;;;5086999;28;20237;-79
2022/03/11 05:25:17;;;;;;;8.80;6.20;;;2.20;85.30;;;;;;5083586;28;20306;-76
2022/03/11 05:27:44;;;;;;;9.67;6.90;;;2.20;85.20;;;;;;5074920;28;20210;-81
2022/03/11 05:30:11;;;;;;;7.63;5.73;;;2.20;85.10;;;;;;5077326;28;20191;-79
2022/03/11 05:32:44;;;;;;;6.80;5.53;;;2.10;85.20;;;;;;5075275;28;20212;-79
2022/03/11 05:35:11;;;;;;;7.17;5.60;;;2.10;85.50;;;;;;5075458;28;20200;-79
2022/03/11 05:37:37;;;;;;;7.70;6.10;;;2.10;85.40;;;;;;5077656;28;20227;-79
2022/03/11 05:40:07;;;;;;;7.37;6.57;;;2.00;85.70;;;;;;5076807;28;20925;-78
2022/03/11 05:42:34;;;;;;;9.13;6.00;;;1.90;85.70;;;;;;5077923;28;20236;-79
2022/03/11 05:45:02;;;;;;;8.77;6.17;;;2.00;86.00;;;;;;5075824;28;20614;-78
2022/03/11 05:47:29;;;;;;;10.13;6.70;;;2.00;85.70;;;;;;5075726;28;20208;-79
2022/03/11 05:49:57;;;;;;;8.27;5.83;;;2.00;86.00;;;;;;5077851;28;20230;-79
2022/03/11 05:52:24;;;;;;;8.77;6.70;;;2.10;85.50;;;;;;5075194;28;20207;-78
2022/03/11 05:54:53;;;;;;;7.93;6.27;;;2.00;85.40;;;;;;5078467;28;20198;-78
2022/03/11 05:57:20;;;;;;;8.63;6.43;;;2.00;85.40;;;;;;5076925;28;20292;-78
2022/03/11 05:59:46;;;;;;;8.70;6.00;;;2.00;85.30;;;;;;5077561;28;20199;-79
2022/03/11 06:02:13;;;;;;;9.33;6.20;;;2.00;85.30;;;;;;5075479;28;20267;-78
2022/03/11 06:04:40;;;;;;;9.77;6.67;;;2.00;85.40;;;;;;5077225;28;20618;-79
2022/03/11 06:07:11;;;;;;;8.23;5.90;;;2.00;85.40;;;;;;5075798;28;20213;-78
2022/03/11 06:09:37;;;;;;;10.00;6.57;;;2.00;85.40;;;;;;5076415;28;20196;-78
2022/03/11 06:12:05;;;;;;;8.53;6.83;;;1.90;85.60;;;;;;5076343;28;20203;-79
2022/03/11 06:14:31;;;;;;;8.60;6.17;;;1.90;85.60;;;;;;5078304;28;20203;-79
2022/03/11 06:16:58;;;;;;;9.67;6.10;;;2.00;85.60;;;;;;5078381;28;20227;-79
2022/03/11 06:19:25;;;;;;;7.70;6.50;;;2.00;85.70;;;;;;5076169;28;20202;-79
2022/03/11 06:21:52;;;;;;;10.17;6.53;;;2.00;85.90;;;;;;5074224;28;20333;-79
2022/03/11 06:24:20;;;;;;;7.93;6.43;;;2.00;85.80;;;;;;5077366;28;20875;-78
2022/03/11 06:26:46;;;;;;;7.60;6.17;;;2.10;85.70;;;;;;5075931;28;20213;-78
2022/03/11 06:29:13;;;;;;;9.27;6.53;;;2.10;87.40;;;;;;5077413;28;20283;-77
2022/03/11 06:31:40;;;;;;;9.07;6.30;;;2.10;87.20;;;;;;5075369;28;20722;-79
2022/03/11 06:34:06;;;;;;;10.57;6.70;;;2.10;86.30;;;;;;5074454;28;20864;-79
2022/03/11 06:36:34;;;;;;;11.80;6.50;;;2.00;85.40;;;;;;5075699;28;20296;-78
2022/03/11 06:39:00;;;;;;;10.37;6.47;;;2.00;85.40;;;;;;5075927;28;21054;-79
2022/03/11 06:41:28;;;;;;;7.73;6.37;;;2.10;85.60;;;;;;5075234;28;20803;-79
2022/03/11 06:43:55;;;;;;;10.97;6.03;;;2.10;85.20;;;;;;5067866;28;20211;-79
2022/03/11 06:46:22;;;;;;;7.33;6.43;;;2.10;85.10;;;;;;5074262;28;20598;-78
2022/03/11 06:48:48;;;;;;;8.20;6.10;;;2.10;85.10;;;;;;5086775;28;20575;-78
2022/03/11 06:51:15;;;;;;;8.80;6.70;;;2.10;84.80;;;;;;5086178;28;20602;-78
2022/03/11 06:53:42;;;;;;;11.27;7.23;;;2.10;84.90;;;;;;5074284;28;20206;-79
2022/03/11 06:56:08;;;;;;;7.13;6.17;;;2.20;85.30;;;;;;5076467;28;20244;-78
2022/03/11 06:58:37;;;;;;;14.27;6.97;;;2.20;85.30;;;;;;5072392;28;20211;-79
2022/03/11 07:01:04;;;;;;;7.27;5.83;;;2.20;84.70;;;;;;5072141;28;20200;-78
2022/03/11 07:03:30;;;;;;;8.60;5.93;;;2.30;85.40;;;;;;5075408;28;20661;-79
2022/03/11 07:05:57;;;;;;;8.90;6.70;;;2.30;85.00;;;;;;5078119;28;20203;-78
2022/03/11 07:08:24;;;;;;;7.77;5.77;;;2.40;84.60;;;;;;5084918;28;20261;-78
2022/03/11 07:10:51;;;;;;;7.80;6.27;;;2.40;84.20;;;;;;5082712;28;20203;-78
2022/03/11 07:13:18;;;;;;;9.07;6.47;;;2.50;84.60;;;;;;5082224;28;20256;-78
2022/03/11 07:15:46;;;;;;;8.63;6.27;;;2.50;84.70;;;;;;5073879;28;20230;-78
2022/03/11 07:18:13;;;;;;;8.80;7.03;;;2.60;83.90;;;;;;5077680;28;21062;-77
2022/03/11 07:20:40;;;;;;;11.10;6.67;;;2.50;83.70;;;;;;5076994;28;20214;-78
2022/03/11 07:23:07;;;;;;;10.77;6.90;;;2.60;83.40;;;;;;5083232;28;20369;-78
2022/03/11 07:25:34;;;;;;;8.03;6.57;;;2.70;83.30;;;;;;5079630;28;20209;-78
2022/03/11 07:28:01;;;;;;;10.93;6.03;;;2.70;83.40;;;;;;5078844;28;20297;-78
2022/03/11 07:30:27;;;;;;;9.97;6.50;;;2.80;83.40;;;;;;5084452;28;20614;-78
2022/03/11 07:32:55;;;;;;;8.63;6.50;;;2.80;83.30;;;;;;5071485;28;20212;-79
2022/03/11 07:35:22;;;;;;;9.07;6.63;;;2.90;84.00;;;;;;5083404;28;20248;-79
2022/03/11 07:37:50;;;;;;;8.60;6.23;;;2.90;82.10;;;;;;5091199;28;20235;-77
2022/03/11 07:40:17;;;;;;;8.43;6.70;;;2.90;83.40;;;;;;5079689;28;20199;-76
2022/03/11 07:42:44;;;;;;;8.73;6.30;;;3.10;83.90;;;;;;5088955;28;21023;-77
2022/03/11 07:45:13;;;;;;;10.63;6.20;;;3.20;84.20;;;;;;5081918;28;20202;-78
2022/03/11 07:47:41;;;;;;;8.63;6.80;;;3.20;82.40;;;;;;5081673;28;20291;-78
2022/03/11 07:50:10;;;;;;;10.50;6.70;;;3.30;82.20;;;;;;5079302;28;20575;-78
2022/03/11 07:52:38;;;;;;;9.30;7.20;;;3.40;82.20;;;;;;5079912;28;20198;-78
2022/03/11 07:55:06;;;;;;;10.40;6.47;;;3.40;81.70;;;;;;5084976;28;20227;-78
2022/03/11 07:57:33;;;;;;;9.10;6.30;;;3.50;81.40;;;;;;5088462;28;20234;-78
2022/03/11 08:00:01;;;;;;;10.20;6.63;;;3.60;82.20;;;;;;5090108;28;20288;-78
2022/03/11 08:02:29;;;;;;;10.57;6.27;;;3.60;80.40;;;;;;5086793;28;20295;-78
2022/03/11 08:04:57;;;;;;;7.47;6.10;;;3.60;80.10;;;;;;5088338;28;20720;-78
2022/03/11 08:07:25;;;;;;;10.63;6.37;;;3.70;79.60;;;;;;5088892;28;20297;-77
2022/03/11 08:09:51;;;;;;;8.40;6.50;;;3.70;79.20;;;;;;5075571;28;20211;-78
2022/03/11 08:12:18;;;;;;;10.03;6.70;;;3.70;79.90;;;;;;5081012;28;20206;-78
2022/03/11 08:14:46;;;;;;;9.47;6.33;;;3.80;80.10;;;;;;5080948;28;20203;-78
2022/03/11 08:17:12;;;;;;;7.63;6.60;;;3.90;79.10;;;;;;5078003;28;20324;-77
2022/03/11 08:19:39;;;;;;;11.67;6.50;;;4.00;78.50;;;;;;5085626;28;20207;-78
2022/03/11 08:22:07;;;;;;;6.77;5.70;;;3.90;77.60;;;;;;5078656;28;20239;-78
2022/03/11 08:24:35;;;;;;;6.83;5.93;;;4.00;78.30;;;;;;5080458;28;20240;-78
2022/03/11 08:27:01;;;;;;;7.80;6.30;;;4.00;77.50;;;;;;5081300;28;20199;-78
2022/03/11 08:29:32;;;;;;;7.00;5.87;;;4.10;77.50;;;;;;5080705;28;20633;-78
2022/03/11 08:32:00;;;;;;;8.67;6.43;;;4.20;77.90;;;;;;5088773;28;20242;-77
2022/03/11 08:34:26;;;;;;;7.70;5.70;;;4.30;77.70;;;;;;5073443;28;20199;-78
2022/03/11 08:36:53;;;;;;;8.27;5.87;;;4.40;76.50;;;;;;5085410;28;20249;-77
2022/03/11 08:39:20;;;;;;;7.63;5.97;;;4.50;77.40;;;;;;5088923;28;20211;-77
2022/03/11 08:41:48;;;;;;;8.50;6.43;;;4.60;76.50;;;;;;5075981;28;20218;-77
2022/03/11 08:44:14;;;;;;;9.13;6.43;;;4.60;76.30;;;;;;5071021;28;20203;-77
2022/03/11 08:46:41;;;;;;;7.33;5.57;;;4.70;75.40;;;;;;5087942;28;20210;-77
2022/03/11 08:49:08;;;;;;;6.27;5.67;;;4.80;75.40;;;;;;5089399;28;20276;-78
2022/03/11 08:51:35;;;;;;;8.03;5.47;;;4.90;74.40;;;;;;5088284;28;20226;-77
2022/03/11 08:54:02;;;;;;;8.97;5.73;;;5.00;73.10;;;;;;5088284;28;20202;-78
2022/03/11 08:56:28;;;;;;;9.00;6.40;;;5.00;76.00;;;;;;5088358;28;20257;-78
2022/03/11 08:58:56;;;;;;;7.27;5.70;;;5.00;74.70;;;;;;5087949;28;20238;-77
2022/03/11 09:01:23;;;;;;;7.07;6.30;;;5.10;74.30;;;;;;5079092;28;20203;-77
2022/03/11 09:03:50;;;;;;;7.90;6.17;;;5.10;72.80;;;;;;5080021;28;20208;-78
2022/03/11 09:06:16;;;;;;;7.43;5.90;;;5.10;71.70;;;;;;5078350;28;20232;-77
2022/03/11 09:08:44;;;;;;;8.03;5.80;;;5.20;71.90;;;;;;5074759;28;20200;-77
2022/03/11 09:11:11;;;;;;;7.50;6.07;;;5.30;72.80;;;;;;5072120;28;20214;-77
2022/03/11 09:13:38;;;;;;;9.43;5.90;;;5.20;71.80;;;;;;5077838;28;20199;-77
2022/03/11 09:16:06;;;;;;;7.30;5.90;;;5.30;71.70;;;;;;5085463;28;20310;-77
2022/03/11 09:18:33;;;;;;;10.30;5.87;;;5.40;72.60;;;;;;5081432;28;20226;-77
2022/03/11 09:21:02;;;;;;;7.27;5.53;;;5.50;73.20;;;;;;5082768;28;20307;-76
2022/03/11 09:23:29;;;;;;;8.83;5.93;;;5.70;72.20;;;;;;5070413;28;20254;-76
2022/03/11 09:25:56;;;;;;;6.27;5.67;;;5.70;70.40;;;;;;5077233;28;20203;-76
2022/03/11 09:28:23;;;;;;;7.93;5.87;;;5.70;69.80;;;;;;5079059;28;20225;-79
2022/03/11 09:30:50;;;;;;;7.57;5.23;;;5.80;70.40;;;;;;5078835;28;20199;-76
2022/03/11 09:33:18;;;;;;;7.73;6.10;;;5.90;71.50;;;;;;5078400;28;20252;-77
2022/03/11 09:35:45;;;;;;;7.83;5.80;;;6.00;70.40;;;;;;5072217;28;20616;-77
2022/03/11 09:38:12;;;;;;;6.50;5.57;;;6.10;69.50;;;;;;5072866;28;20965;-76
2022/03/11 09:40:42;;;;;;;12.20;5.80;;;6.00;69.20;;;;;;5071135;28;20204;-76
2022/03/11 09:43:10;;;;;;;10.07;6.33;;;6.10;69.80;;;;;;5083390;28;20200;-75
2022/03/11 09:45:37;;;;;;;7.67;6.10;;;6.20;69.90;;;;;;5083516;28;20288;-76
2022/03/11 09:48:04;;;;;;;7.13;6.00;;;6.30;69.20;;;;;;5086747;28;20211;-76
2022/03/11 09:50:33;;;;;;;6.67;5.83;;;6.40;67.70;;;;;;5071442;28;20282;-76
2022/03/11 09:53:00;;;;;;;11.07;6.13;;;6.40;67.60;;;;;;5080834;28;20765;-76
2022/03/11 09:55:27;;;;;;;6.57;5.87;;;6.50;67.90;;;;;;5081299;28;20222;-76
2022/03/11 09:57:55;;;;;;;8.37;6.13;;;6.50;68.10;;;;;;5074854;28;20227;-75
2022/03/11 10:00:21;;;;;;;6.80;5.80;;;6.60;68.30;;;;;;5077300;28;20226;-76
2022/03/11 10:02:48;;;;;;;7.27;5.90;;;6.70;70.10;;;;;;5084197;28;20210;-76
2022/03/11 10:05:16;;;;;;;12.43;6.87;;;6.70;68.80;;;;;;5077920;28;20219;-76
2022/03/11 10:07:44;;;;;;;8.90;6.17;;;6.70;68.50;;;;;;5077949;28;20682;-76
2022/03/11 10:10:14;;;;;;;6.83;5.70;;;6.80;68.70;;;;;;5075376;28;20199;-76
2022/03/11 10:12:42;;;;;;;9.37;6.47;;;6.90;68.30;;;;;;5078155;28;20198;-76
2022/03/11 10:15:09;;;;;;;7.60;5.13;;;7.00;68.80;;;;;;5076100;28;20705;-76
2022/03/11 10:17:41;;;;;;;8.93;6.23;;;7.10;68.90;;;;;;5075935;28;20579;-75
2022/03/11 10:20:10;;;;;;;7.60;5.77;;;7.20;66.50;;;;;;5078013;28;20218;-76
2022/03/11 10:22:37;;;;;;;8.17;5.70;;;7.30;67.00;;;;;;5076690;28;20239;-76
2022/03/11 10:25:10;;;;;;;9.00;5.93;;;7.20;66.40;;;;;;5077240;28;20199;-76
2022/03/11 10:28:01;;;;;;;7.63;6.07;;;7.10;66.10;;;;;;5067074;28;20203;-77
2022/03/11 10:30:30;;;;;;;8.57;6.00;;;7.20;66.60;;;;;;5067840;28;20681;-76
2022/03/11 10:32:58;;;;;;;6.60;5.77;;;7.10;67.00;;;;;;5073397;28;20227;-77
2022/03/11 10:35:30;;;;;;;9.37;6.20;;;7.30;67.60;;;;;;5071453;28;20199;-76
2022/03/11 10:37:59;;;;;;;6.47;5.67;;;7.50;67.40;;;;;;5080513;28;20952;-76
2022/03/11 10:40:28;;;;;;;7.40;6.00;;;7.50;66.50;;;;;;5074636;28;20202;-77
2022/03/11 10:43:09;;;;;;;8.73;6.17;;;7.70;66.70;;;;;;5072166;28;20203;-77
2022/03/11 10:45:44;;;;;;;8.57;6.23;;;7.80;65.40;;;;;;5085585;28;20228;-77
2022/03/11 10:48:11;;;;;;;8.90;6.13;;;7.80;64.00;;;;;;5079784;28;20204;-76
2022/03/11 10:50:38;;;;;;;7.93;6.47;;;7.90;63.50;;;;;;5079652;28;20203;-76
2022/03/11 10:53:07;;;;;;;10.90;5.93;;;7.90;63.50;;;;;;5074548;28;20248;-79
2022/03/11 10:55:38;;;;;;;7.13;5.80;;;8.00;63.60;;;;;;5072978;28;20775;-79
2022/03/11 10:58:07;;;;;;;6.93;5.60;;;8.10;63.30;;;;;;5072982;28;20321;-79
2022/03/11 11:00:34;;;;;;;7.37;6.27;;;8.30;63.10;;;;;;5088860;28;20621;-79
2022/03/11 11:03:03;;;;;;;8.03;5.97;;;8.30;62.10;;;;;;5089135;28;20214;-79
2022/03/11 11:05:30;;;;;;;8.40;5.90;;;8.30;62.70;;;;;;5091099;28;20704;-79
2022/03/11 11:07:59;;;;;;;8.50;5.90;;;8.30;62.10;;;;;;5091691;28;20210;-79
2022/03/11 11:10:28;;;;;;;6.37;5.40;;;8.40;61.20;;;;;;5090630;28;20211;-79
2022/03/11 11:12:56;;;;;;;7.87;5.80;;;8.50;61.30;;;;;;5072202;28;20211;-78
2022/03/11 11:15:24;;;;;;;6.90;5.80;;;8.60;60.70;;;;;;5082510;28;20222;-79
2022/03/11 11:17:51;;;;;;;7.07;5.33;;;8.60;60.50;;;;;;5091099;28;20207;-79
2022/03/11 11:20:20;;;;;;;8.67;6.37;;;8.70;60.00;;;;;;5084122;28;20736;-78
2022/03/11 11:22:49;;;;;;;8.93;5.90;;;8.60;60.20;;;;;;5070648;28;20238;-79
2022/03/11 11:25:17;;;;;;;7.50;5.50;;;8.70;61.40;;;;;;5077541;28;20199;-79
2022/03/11 11:27:45;;;;;;;7.10;5.87;;;8.90;60.00;;;;;;5090684;28;20658;-78
2022/03/11 11:30:16;;;;;;;6.20;5.60;;;9.00;59.60;;;;;;5090937;28;20215;-78
2022/03/11 11:32:43;;;;;;;9.80;5.53;;;9.20;61.30;;;;;;5091117;28;20190;-78
2022/03/11 11:35:31;;;;;;;9.93;5.50;;;9.40;60.90;;;;;;5090911;28;20750;-78
2022/03/11 11:37:59;;;;;;;7.67;5.73;;;9.50;59.20;;;;;;5090765;28;20233;-79
2022/03/11 11:40:28;;;;;;;8.33;5.77;;;9.50;60.20;;;;;;5090497;28;20784;-78
2022/03/11 11:43:26;;;;;;;7.07;5.87;;;9.60;59.20;;;;;;5090808;28;20207;-78
2022/03/11 11:45:57;;;;;;;6.47;5.50;;;9.70;58.90;;;;;;5074733;28;20216;-78
2022/03/11 11:48:58;;;;;;;7.43;5.40;;;9.80;58.60;;;;;;5070745;28;20192;-78
2022/03/11 11:52:11;;;;;;;5.47;4.97;;;9.80;57.50;;;;;;5069751;28;20218;-78
2022/03/11 11:54:45;;;;;;;7.10;5.70;;;9.90;58.80;;;;;;5051029;28;20638;-79
2022/03/11 11:57:26;;;;;;;6.37;5.10;;;9.80;57.30;;;;;;5090555;28;20214;-79
2022/03/11 11:59:53;;;;;;;9.63;5.20;;;9.90;57.40;;;;;;5090390;28;20275;-80
2022/03/11 12:02:27;;;;;;;6.37;5.30;;;10.00;57.10;;;;;;5090588;28;20206;-79
2022/03/11 12:04:53;;;;;;;7.60;5.70;;;10.10;57.90;;;;;;5090238;28;20538;-78
2022/03/11 12:07:22;;;;;;;7.07;5.67;;;10.20;56.70;;;;;;5077210;28;20203;-78
2022/03/11 12:09:54;;;;;;;6.87;5.87;;;10.30;57.70;;;;;;5070092;28;20207;-79
2022/03/11 12:12:54;;;;;;;6.87;5.47;;;10.50;57.90;;;;;;5070204;28;20192;-78
2022/03/11 12:15:24;;;;;;;7.47;5.50;;;10.60;57.20;;;;;;5077878;28;20782;-78
2022/03/11 12:17:56;;;;;;;6.77;5.20;;;10.80;57.00;;;;;;5090018;28;20210;-79
2022/03/11 12:20:35;;;;;;;7.50;5.60;;;10.80;55.90;;;;;;5090002;28;20195;-79
2022/03/11 12:23:04;;;;;;;7.23;5.60;;;10.90;55.90;;;;;;5082094;28;20257;-79
2022/03/11 12:25:33;;;;;;;5.70;5.00;;;11.00;55.70;;;;;;5090065;28;20210;-80
2022/03/11 12:28:09;;;;;;;5.93;5.27;;;11.10;56.00;;;;;;5090244;28;20207;-79
2022/03/11 12:30:40;;;;;;;8.73;5.20;;;11.10;55.50;;;;;;5090106;28;20197;-79
2022/03/11 12:33:09;;;;;;;7.90;5.50;;;11.20;56.60;;;;;;5089960;28;20215;-79
2022/03/11 12:35:37;;;;;;;5.63;5.07;;;11.30;55.50;;;;;;5089843;28;20680;-79
2022/03/11 12:38:05;;;;;;;6.27;5.40;;;11.30;55.10;;;;;;5089654;28;20252;-79
2022/03/11 12:40:34;;;;;;;7.07;5.40;;;11.40;55.50;;;;;;5089750;28;20218;-78
2022/03/11 12:43:03;;;;;;;7.83;5.23;;;11.30;54.00;;;;;;5089810;28;20226;-79
2022/03/11 12:45:35;;;;;;;7.23;5.43;;;11.30;53.80;;;;;;5089250;28;20218;-78
2022/03/11 12:48:02;;;;;;;7.50;5.40;;;11.30;53.80;;;;;;5089455;28;21090;-79
2022/03/11 12:50:31;;;;;;;6.97;4.63;;;11.30;53.80;;;;;;5089189;28;20203;-78
2022/03/11 12:52:59;;;;;;;6.80;5.17;;;11.30;53.20;;;;;;5069048;28;20198;-78
2022/03/11 12:55:30;;;;;;;8.53;5.30;;;11.30;53.10;;;;;;5069268;28;20576;-78
2022/03/11 12:57:58;;;;;;;7.33;5.40;;;11.20;53.30;;;;;;5069455;28;20196;-78
2022/03/11 13:00:27;;;;;;;6.23;5.13;;;11.30;53.70;;;;;;5069020;28;20246;-78